Time;durP1;ratioP1;P1;durP2;ratioP2;P2;SDS_P1;SDS_P2;PMS_P1;PMS_P2;Temp;Humidity;BMP_temperature;BMP_pressure;BME280_temperature;BME280_humidity;BME280_pressure;Samples;Min_cycle;Max_cycle;Signal;HPM_P1;HPM_P2
2023/06/11 00:01:53;;;;;;;1999.90;999.90;;;24.20;17.80;;;;;;5013177;28;20890;-68
2023/06/11 00:04:19;;;;;;;1999.90;999.90;;;24.10;18.50;;;;;;5013988;28;20161;-68
2023/06/11 00:06:45;;;;;;;1999.90;999.90;;;24.10;19.50;;;;;;5013974;28;20697;-68
2023/06/11 00:09:11;;;;;;;1999.90;999.90;;;24.00;20.30;;;;;;5013812;28;20262;-68
2023/06/11 00:11:41;;;;;;;1999.90;999.90;;;24.00;21.30;;;;;;5013565;28;20379;-68
2023/06/11 00:14:08;;;;;;;1999.90;999.90;;;23.90;22.20;;;;;;5014062;28;20412;-68
2023/06/11 00:16:34;;;;;;;1999.90;999.90;;;23.90;22.80;;;;;;5013655;28;20406;-68
2023/06/11 00:19:00;;;;;;;1999.90;999.90;;;23.80;23.50;;;;;;5013590;28;20470;-68
2023/06/11 00:21:28;;;;;;;1999.90;999.90;;;23.70;24.80;;;;;;5013396;28;20528;-68
2023/06/11 00:23:54;;;;;;;1999.90;999.90;;;23.70;25.50;;;;;;5013574;28;20207;-68
2023/06/11 00:26:20;;;;;;;1999.90;999.90;;;23.70;26.70;;;;;;5013754;28;20939;-68
2023/06/11 00:28:46;;;;;;;1999.90;999.90;;;23.70;27.70;;;;;;5013703;28;20208;-68
2023/06/11 00:31:11;;;;;;;1999.90;999.90;;;23.60;28.80;;;;;;5013105;28;20884;-68
2023/06/11 00:33:37;;;;;;;1999.90;999.90;;;23.60;29.90;;;;;;5013479;28;20176;-68
2023/06/11 00:36:02;;;;;;;1999.90;999.90;;;23.50;31.60;;;;;;5013360;28;20222;-68
2023/06/11 00:38:29;;;;;;;1999.90;999.90;;;23.50;32.60;;;;;;5013362;28;20177;-68
2023/06/11 00:40:54;;;;;;;1999.90;999.90;;;23.50;33.90;;;;;;5013293;28;20205;-68
2023/06/11 00:43:23;;;;;;;1999.90;999.90;;;23.40;35.00;;;;;;5013906;28;20383;-68
2023/06/11 00:45:50;;;;;;;1999.90;999.90;;;23.40;36.80;;;;;;5014332;28;20158;-67
2023/06/11 00:48:19;;;;;;;1999.90;999.90;;;23.40;38.10;;;;;;5018518;28;20397;-67
2023/06/11 00:50:48;;;;;;;1999.90;999.90;;;23.30;40.20;;;;;;5034275;28;20464;-68
2023/06/11 00:53:15;;;;;;;1999.90;999.90;;;23.20;41.60;;;;;;5033848;28;20999;-67
2023/06/11 00:55:41;;;;;;;1999.90;999.90;;;23.10;43.30;;;;;;5034133;28;20435;-67
2023/06/11 00:58:13;;;;;;;1999.90;999.90;;;23.10;45.30;;;;;;5033689;28;20416;-67
2023/06/11 01:00:45;;;;;;;1999.90;999.90;;;23.00;47.70;;;;;;5033706;28;20561;-67
2023/06/11 01:03:17;;;;;;;1999.90;999.90;;;23.00;50.20;;;;;;5033459;28;20985;-67
2023/06/11 01:05:47;;;;;;;1999.90;999.90;;;22.90;53.00;;;;;;5033861;28;20431;-67
2023/06/11 01:08:13;;;;;;;1999.90;999.90;;;22.90;54.60;;;;;;5033596;28;20423;-67
2023/06/11 01:10:40;;;;;;;1999.90;999.90;;;22.80;57.60;;;;;;5033795;28;20442;-67
2023/06/11 01:13:06;;;;;;;1999.90;999.90;;;22.80;58.30;;;;;;5034056;28;20402;-68
2023/06/11 01:15:31;;;;;;;1999.90;999.90;;;22.70;60.90;;;;;;5034143;28;20393;-67
2023/06/11 01:18:05;;;;;;;1999.90;999.90;;;22.70;64.10;;;;;;5033709;28;20196;-67
2023/06/11 01:20:39;;;;;;;1999.90;999.90;;;22.60;67.90;;;;;;5033579;28;20208;-67
2023/06/11 01:23:33;;;;;;;1999.90;999.90;;;22.50;71.60;;;;;;5033680;28;20377;-67
2023/06/11 01:26:16;;;;;;;1999.90;999.90;;;22.30;77.20;;;;;;5034263;28;20431;-68
2023/06/11 01:28:46;;;;;;;1999.90;999.90;;;22.30;81.20;;;;;;5034247;28;20402;-67
2023/06/11 01:31:15;;;;;;;1999.90;999.90;;;22.30;84.80;;;;;;5033717;28;20435;-67
2023/06/11 01:33:42;;;;;;;1999.90;999.90;;;22.20;89.80;;;;;;5033788;28;20382;-67
2023/06/11 01:36:10;;;;;;;1999.90;999.90;;;22.20;91.40;;;;;;5033566;28;21846;-67
2023/06/11 01:38:42;;;;;;;1999.90;999.90;;;22.20;92.20;;;;;;5033755;28;20386;-67
2023/06/11 01:41:14;;;;;;;1999.90;999.90;;;22.10;93.50;;;;;;5032568;28;20560;-67
2023/06/11 01:43:40;;;;;;;1999.90;999.90;;;22.00;95.00;;;;;;5032872;28;20798;-67
2023/06/11 01:46:06;;;;;;;1999.90;999.90;;;22.10;96.50;;;;;;5031992;28;20407;-68
2023/06/11 01:48:32;;;;;;;1999.90;999.90;;;22.00;98.10;;;;;;5032099;28;20370;-67
2023/06/11 01:50:58;;;;;;;1999.90;999.90;;;22.00;99.90;;;;;;5031799;28;20470;-68
2023/06/11 01:53:24;;;;;;;1999.90;999.90;;;21.90;99.90;;;;;;5031983;28;20442;-67
2023/06/11 01:55:50;;;;;;;1999.90;999.90;;;21.90;99.90;;;;;;5032082;28;20180;-68
2023/06/11 01:58:18;;;;;;;1999.90;999.90;;;21.90;99.90;;;;;;5032060;28;20417;-68
2023/06/11 02:00:47;;;;;;;1999.90;999.90;;;21.90;99.90;;;;;;5031772;28;20423;-68
2023/06/11 02:03:15;;;;;;;1999.90;999.90;;;21.90;99.90;;;;;;5031727;28;20897;-68
2023/06/11 02:05:41;;;;;;;1999.90;999.90;;;21.80;99.90;;;;;;5031931;28;20468;-68
2023/06/11 02:08:07;;;;;;;1999.90;999.90;;;21.80;99.90;;;;;;5031698;28;20765;-67
2023/06/11 02:10:32;;;;;;;1999.90;999.90;;;21.80;99.90;;;;;;5031828;28;20415;-68
2023/06/11 02:12:58;;;;;;;1999.90;999.90;;;21.70;99.90;;;;;;5031531;28;20629;-67
2023/06/11 02:15:24;;;;;;;1999.90;999.90;;;21.70;99.90;;;;;;5031854;28;20586;-68
2023/06/11 02:17:49;;;;;;;1999.90;999.90;;;21.70;99.90;;;;;;5031683;28;20196;-68
2023/06/11 02:20:15;;;;;;;1999.90;999.90;;;21.70;99.90;;;;;;5031606;28;20207;-67
2023/06/11 02:22:41;;;;;;;1999.90;999.90;;;21.70;99.90;;;;;;5031456;28;20193;-68
2023/06/11 02:25:07;;;;;;;1999.90;999.90;;;21.70;99.90;;;;;;5035387;28;20578;-68
2023/06/11 02:27:32;;;;;;;1999.90;999.90;;;21.60;99.90;;;;;;5035568;28;20223;-68
2023/06/11 02:29:59;;;;;;;1999.90;999.90;;;21.60;99.90;;;;;;5035703;28;20770;-67
2023/06/11 02:32:25;;;;;;;1999.90;999.90;;;21.60;99.90;;;;;;5035359;28;20615;-68
2023/06/11 02:34:51;;;;;;;1999.90;999.90;;;21.50;99.90;;;;;;5035644;28;20381;-68
2023/06/11 02:37:16;;;;;;;1999.90;999.90;;;21.40;99.90;;;;;;5035389;28;20195;-67
2023/06/11 02:39:42;;;;;;;1999.90;999.90;;;21.40;99.90;;;;;;5035495;28;20828;-68
2023/06/11 02:42:08;;;;;;;1999.90;999.90;;;21.30;99.90;;;;;;5035147;28;20239;-67
2023/06/11 02:44:34;;;;;;;1999.90;999.90;;;21.20;99.90;;;;;;5035483;28;20179;-68
2023/06/11 02:47:00;;;;;;;1999.90;999.90;;;21.10;99.90;;;;;;5035353;28;20487;-67
2023/06/11 02:49:26;;;;;;;1999.90;999.90;;;21.00;99.90;;;;;;5035352;28;20480;-68
2023/06/11 02:51:52;;;;;;;1999.90;999.90;;;21.00;99.90;;;;;;5034989;28;20225;-68
2023/06/11 02:54:18;;;;;;;1999.90;999.90;;;21.10;99.90;;;;;;5035253;28;20832;-67
2023/06/11 02:56:43;;;;;;;1999.90;999.90;;;21.00;99.90;;;;;;5035158;28;20206;-68
2023/06/11 02:59:09;;;;;;;1999.90;999.90;;;21.10;99.90;;;;;;5035258;28;20255;-67
2023/06/11 03:01:34;;;;;;;1999.90;999.90;;;21.00;99.90;;;;;;5034730;28;20677;-67
2023/06/11 03:04:00;;;;;;;1999.90;999.90;;;20.90;99.90;;;;;;5035043;28;20176;-67
2023/06/11 03:06:26;;;;;;;1999.90;999.90;;;20.80;99.90;;;;;;5034914;28;20573;-68
2023/06/11 03:08:53;;;;;;;1999.90;999.90;;;20.70;99.90;;;;;;5034973;28;20180;-68
2023/06/11 03:11:18;;;;;;;1999.90;999.90;;;20.70;99.90;;;;;;5034565;28;20175;-67
2023/06/11 03:13:44;;;;;;;1999.90;999.90;;;20.80;99.90;;;;;;5034846;28;20393;-68
2023/06/11 03:16:10;;;;;;;1999.90;999.90;;;20.80;99.90;;;;;;5034749;28;20195;-67
2023/06/11 03:18:36;;;;;;;1999.90;999.90;;;20.80;99.90;;;;;;5034945;28;20188;-67
2023/06/11 03:21:02;;;;;;;1999.90;999.90;;;20.80;99.90;;;;;;5034171;28;20478;-67
2023/06/11 03:23:27;;;;;;;1999.90;999.90;;;20.80;99.90;;;;;;5034747;28;20232;-67
2023/06/11 03:25:53;;;;;;;1999.90;999.90;;;20.80;99.90;;;;;;5034478;28;20183;-67
2023/06/11 03:28:18;;;;;;;1999.90;999.90;;;20.80;99.90;;;;;;5034626;28;20168;-67
2023/06/11 03:30:44;;;;;;;1999.90;999.90;;;20.70;99.90;;;;;;5034651;28;20182;-67
2023/06/11 03:33:10;;;;;;;1999.90;999.90;;;20.70;99.90;;;;;;5034763;28;20181;-67
2023/06/11 03:35:35;;;;;;;1999.90;999.90;;;20.70;99.90;;;;;;5033227;28;20199;-68
2023/06/11 03:38:01;;;;;;;1999.90;999.90;;;20.60;99.90;;;;;;5034445;28;20712;-67
2023/06/11 03:40:26;;;;;;;1999.90;999.90;;;20.50;99.90;;;;;;5034268;28;20619;-68
2023/06/11 03:42:52;;;;;;;1999.90;999.90;;;20.50;99.90;;;;;;5034157;28;20212;-67
2023/06/11 03:45:17;;;;;;;1999.90;999.90;;;20.40;99.90;;;;;;5034238;28;20177;-67
2023/06/11 03:47:43;;;;;;;1999.90;999.90;;;20.40;99.90;;;;;;5034241;28;20690;-68
2023/06/11 03:50:09;;;;;;;1999.90;999.90;;;20.40;99.90;;;;;;5034223;28;20186;-68
2023/06/11 03:52:35;;;;;;;1999.90;999.90;;;20.40;99.90;;;;;;5033839;28;20183;-68
2023/06/11 03:55:00;;;;;;;1999.90;999.90;;;20.40;99.90;;;;;;5034097;28;20923;-67
2023/06/11 03:57:26;;;;;;;1999.90;999.90;;;20.40;99.90;;;;;;5034056;28;20341;-68
2023/06/11 03:59:51;;;;;;;1999.90;999.90;;;20.40;99.90;;;;;;5033983;28;20358;-67
2023/06/11 04:02:17;;;;;;;1999.90;999.90;;;20.50;99.90;;;;;;5033638;28;20175;-68
2023/06/11 04:04:43;;;;;;;1999.90;999.90;;;20.50;99.90;;;;;;5034003;28;20251;-67
2023/06/11 04:07:08;;;;;;;1999.90;999.90;;;20.50;99.90;;;;;;5033824;28;20258;-68
2023/06/11 04:09:34;;;;;;;1999.90;999.90;;;20.60;99.90;;;;;;5033809;28;20601;-68
2023/06/11 04:11:59;;;;;;;1999.90;999.90;;;20.50;99.90;;;;;;5033686;28;20176;-67
2023/06/11 04:14:25;;;;;;;1999.90;999.90;;;20.50;99.90;;;;;;5033993;28;20629;-68
2023/06/11 04:16:51;;;;;;;1999.90;999.90;;;20.50;99.90;;;;;;5033827;28;20242;-67
2023/06/11 04:19:18;;;;;;;1999.90;999.90;;;20.60;99.90;;;;;;5033606;28;20191;-67
2023/06/11 04:21:43;;;;;;;1999.90;999.90;;;20.60;99.90;;;;;;5033356;28;20234;-67
2023/06/11 04:24:09;;;;;;;1999.90;999.90;;;20.70;99.90;;;;;;5033363;28;20448;-68
2023/06/11 04:26:36;;;;;;;1999.90;999.90;;;20.70;99.90;;;;;;5033428;28;20244;-68
2023/06/11 04:29:02;;;;;;;1999.90;999.90;;;20.80;99.90;;;;;;5033483;28;20420;-67
2023/06/11 04:31:29;;;;;;;1999.90;999.90;;;20.80;99.90;;;;;;5033080;28;20418;-68
2023/06/11 04:34:06;;;;;;;1999.90;999.90;;;20.80;99.90;;;;;;5033228;28;20383;-68
2023/06/11 04:36:32;;;;;;;1999.90;999.90;;;20.90;99.90;;;;;;5033387;28;20433;-68
2023/06/11 04:39:02;;;;;;;1999.90;999.90;;;20.90;99.90;;;;;;5033277;28;20546;-67
2023/06/11 04:41:29;;;;;;;1999.90;999.90;;;20.90;99.90;;;;;;5033016;28;20212;-68
2023/06/11 04:43:55;;;;;;;1999.90;999.90;;;20.80;99.90;;;;;;5033198;28;20904;-68
2023/06/11 04:46:21;;;;;;;1999.90;999.90;;;20.80;99.90;;;;;;5032700;28;20438;-67
2023/06/11 04:48:50;;;;;;;1999.90;999.90;;;20.90;99.90;;;;;;5033225;28;20174;-67
2023/06/11 04:51:16;;;;;;;1999.90;999.90;;;20.90;99.90;;;;;;5032807;28;20476;-67
2023/06/11 04:53:42;;;;;;;1999.90;999.90;;;20.90;99.90;;;;;;5033235;28;20763;-67
2023/06/11 04:56:08;;;;;;;1999.90;999.90;;;21.00;99.90;;;;;;5033048;28;20392;-67
2023/06/11 04:58:34;;;;;;;1999.90;999.90;;;21.10;99.90;;;;;;5033002;28;20405;-68
2023/06/11 05:01:00;;;;;;;1999.90;999.90;;;21.10;99.90;;;;;;5032408;28;20198;-68
2023/06/11 05:03:29;;;;;;;1999.90;999.90;;;21.20;99.90;;;;;;5032850;28;20168;-68
2023/06/11 05:05:55;;;;;;;1999.90;999.90;;;21.30;99.90;;;;;;5032733;28;20359;-68
2023/06/11 05:08:24;;;;;;;1999.90;999.90;;;21.30;99.90;;;;;;5032760;28;20411;-68
2023/06/11 05:10:50;;;;;;;1999.90;999.90;;;21.40;99.90;;;;;;5032616;28;20407;-68
2023/06/11 05:13:16;;;;;;;1999.90;999.90;;;21.40;99.90;;;;;;5032446;28;20415;-67
2023/06/11 05:15:41;;;;;;;1999.90;999.90;;;21.50;99.90;;;;;;5032434;28;20419;-68
2023/06/11 05:18:07;;;;;;;1999.90;999.90;;;21.50;99.90;;;;;;5032374;28;20604;-68
2023/06/11 05:20:32;;;;;;;1999.90;999.90;;;21.50;99.90;;;;;;5032322;28;20203;-68
2023/06/11 05:22:59;;;;;;;1999.90;999.90;;;21.50;99.90;;;;;;5032185;28;20247;-68
2023/06/11 05:25:28;;;;;;;1999.90;999.90;;;21.60;99.90;;;;;;5032368;28;20180;-68
2023/06/11 05:27:57;;;;;;;1999.90;999.90;;;21.70;99.90;;;;;;5032229;28;20397;-67
2023/06/11 05:30:25;;;;;;;1999.90;999.90;;;21.70;99.90;;;;;;5032418;28;21110;-68
2023/06/11 05:32:53;;;;;;;1999.90;999.90;;;21.80;99.90;;;;;;5032203;28;20418;-67
2023/06/11 05:35:20;;;;;;;1999.90;999.90;;;21.80;99.90;;;;;;5032456;28;20415;-68
2023/06/11 05:37:45;;;;;;;1999.90;999.90;;;21.90;99.90;;;;;;5032250;28;20459;-67
2023/06/11 05:40:11;;;;;;;1999.90;999.90;;;22.00;99.90;;;;;;5032177;28;21008;-68
2023/06/11 05:42:37;;;;;;;1999.90;999.90;;;22.00;99.90;;;;;;5031944;28;20304;-67
2023/06/11 05:45:04;;;;;;;1999.90;999.90;;;22.10;99.90;;;;;;5032181;28;20169;-67
2023/06/11 05:47:29;;;;;;;1999.90;999.90;;;22.20;99.90;;;;;;5031977;28;20461;-67
2023/06/11 05:49:55;;;;;;;1999.90;999.90;;;22.30;99.90;;;;;;5032144;28;20414;-67
2023/06/11 05:52:21;;;;;;;1999.90;999.90;;;22.30;99.90;;;;;;5031594;28;20176;-68
2023/06/11 05:54:46;;;;;;;1999.90;999.90;;;22.40;99.90;;;;;;5031930;28;20168;-67
2023/06/11 05:57:24;;;;;;;1999.90;999.90;;;22.50;99.90;;;;;;5031799;28;20214;-67
2023/06/11 05:59:50;;;;;;;1999.90;999.90;;;22.50;99.90;;;;;;5031619;28;20168;-67
2023/06/11 06:02:16;;;;;;;1999.90;999.90;;;22.50;99.90;;;;;;5031640;28;20458;-67
2023/06/11 06:04:41;;;;;;;1999.90;999.90;;;22.60;99.90;;;;;;5031872;28;20943;-67
2023/06/11 06:07:07;;;;;;;1999.90;999.90;;;22.60;99.90;;;;;;5031741;28;20672;-66
2023/06/11 06:09:33;;;;;;;1999.90;999.90;;;22.70;99.90;;;;;;5031849;28;20172;-66
2023/06/11 06:12:02;;;;;;;1999.90;999.90;;;22.80;99.90;;;;;;5031813;28;20537;-67
2023/06/11 06:14:28;;;;;;;1999.90;999.90;;;22.90;99.90;;;;;;5031825;28;20378;-67
2023/06/11 06:16:53;;;;;;;1999.90;999.90;;;22.90;99.90;;;;;;5031683;28;20493;-67
2023/06/11 06:19:19;;;;;;;1999.90;999.90;;;23.00;99.90;;;;;;5031652;28;20187;-67
2023/06/11 06:21:44;;;;;;;1999.90;999.90;;;23.10;99.90;;;;;;5031347;28;20755;-67
2023/06/11 06:24:11;;;;;;;1999.90;999.90;;;23.10;99.90;;;;;;5031685;28;20751;-67
2023/06/11 06:26:40;;;;;;;1999.90;999.90;;;23.20;99.90;;;;;;5031593;28;20238;-67
2023/06/11 06:29:07;;;;;;;1999.90;999.90;;;23.30;99.90;;;;;;5031603;28;20879;-68
2023/06/11 06:31:33;;;;;;;1999.90;999.90;;;23.30;99.90;;;;;;5031457;28;20870;-67
2023/06/11 06:33:59;;;;;;;1999.90;999.90;;;23.40;99.90;;;;;;5031590;28;20417;-68
2023/06/11 06:36:24;;;;;;;1999.90;999.90;;;23.50;99.90;;;;;;5030993;28;20218;-67
2023/06/11 06:38:50;;;;;;;1999.90;999.90;;;23.50;99.90;;;;;;5031371;28;20172;-67
2023/06/11 06:41:16;;;;;;;1999.90;999.90;;;23.50;99.90;;;;;;5031337;28;20547;-67
2023/06/11 06:43:41;;;;;;;1999.90;999.90;;;23.50;99.90;;;;;;5031486;28;20200;-68
2023/06/11 06:46:08;;;;;;;1999.90;999.90;;;23.50;99.90;;;;;;5031401;28;20191;-68
2023/06/11 06:48:34;;;;;;;1999.90;999.90;;;23.60;99.90;;;;;;5031364;28;20640;-67
2023/06/11 06:51:00;;;;;;;1999.90;999.90;;;23.60;99.90;;;;;;5031080;28;20384;-67
2023/06/11 06:53:26;;;;;;;1999.90;999.90;;;23.60;99.90;;;;;;5031305;28;20381;-67
2023/06/11 06:55:52;;;;;;;1999.90;999.90;;;23.70;99.90;;;;;;5031285;28;20506;-67
2023/06/11 06:58:17;;;;;;;1999.90;999.90;;;23.70;99.90;;;;;;5031367;28;20468;-67
2023/06/11 07:00:45;;;;;;;1999.90;999.90;;;23.70;99.90;;;;;;5031287;28;20246;-67
2023/06/11 07:03:13;;;;;;;1999.90;999.90;;;23.80;99.90;;;;;;5031191;28;20186;-67
2023/06/11 07:05:39;;;;;;;1999.90;999.90;;;23.90;99.90;;;;;;5031274;28;20407;-67
2023/06/11 07:08:04;;;;;;;1999.90;999.90;;;24.00;99.90;;;;;;5031174;28;20438;-67
2023/06/11 07:10:30;;;;;;;1999.90;999.90;;;24.10;99.90;;;;;;5033736;28;20698;-67
2023/06/11 07:12:55;;;;;;;1999.90;999.90;;;24.20;99.90;;;;;;5034390;28;20169;-67
2023/06/11 07:15:21;;;;;;;1999.90;999.90;;;24.30;99.90;;;;;;5032014;28;20187;-67
2023/06/11 07:17:46;;;;;;;1999.90;999.90;;;24.20;99.90;;;;;;5024977;28;20678;-67
2023/06/11 07:20:12;;;;;;;1999.90;999.90;;;24.20;99.90;;;;;;5023960;28;20199;-66
2023/06/11 07:22:38;;;;;;;1999.90;999.90;;;24.20;99.90;;;;;;5024159;28;20677;-67
2023/06/11 07:25:03;;;;;;;1999.90;999.90;;;24.20;99.90;;;;;;5024794;28;20557;-67
2023/06/11 07:27:29;;;;;;;1999.90;999.90;;;24.30;99.90;;;;;;5024488;28;20227;-67
2023/06/11 07:29:55;;;;;;;1999.90;999.90;;;24.40;99.90;;;;;;5024385;28;20417;-67
2023/06/11 07:32:20;;;;;;;1999.90;999.90;;;24.50;99.90;;;;;;5023940;28;20203;-67
2023/06/11 07:34:46;;;;;;;1999.90;999.90;;;24.60;99.90;;;;;;5025083;28;20235;-68
2023/06/11 07:37:11;;;;;;;1999.90;999.90;;;24.70;99.90;;;;;;5024689;28;20273;-67
2023/06/11 07:39:37;;;;;;;1999.90;999.90;;;24.80;99.90;;;;;;5018936;28;20173;-68
2023/06/11 07:42:05;;;;;;;1999.90;999.90;;;24.80;99.90;;;;;;5014075;28;20536;-68
2023/06/11 07:44:30;;;;;;;1999.90;999.90;;;24.80;99.90;;;;;;5014369;28;20191;-68
2023/06/11 07:46:56;;;;;;;1999.90;999.90;;;25.00;99.90;;;;;;5014242;28;20489;-67
2023/06/11 07:49:22;;;;;;;1999.90;999.90;;;25.00;99.90;;;;;;5014313;28;20169;-67
2023/06/11 07:51:47;;;;;;;1999.90;999.90;;;25.00;99.90;;;;;;5013874;28;20799;-66
2023/06/11 07:54:13;;;;;;;1999.90;999.90;;;25.10;99.90;;;;;;5014435;28;20169;-68
2023/06/11 07:56:39;;;;;;;1999.90;999.90;;;25.30;99.90;;;;;;5014290;28;20564;-67
2023/06/11 07:59:04;;;;;;;1999.90;999.90;;;25.20;99.90;;;;;;5014131;28;20720;-67
2023/06/11 08:01:30;;;;;;;1999.90;999.90;;;25.30;99.90;;;;;;5013688;28;20212;-67
2023/06/11 08:03:56;;;;;;;1999.90;999.90;;;25.30;99.90;;;;;;5013882;28;20630;-67
2023/06/11 08:06:22;;;;;;;1999.90;999.90;;;25.40;99.90;;;;;;5013840;28;20193;-67
2023/06/11 08:08:48;;;;;;;1999.90;999.90;;;25.50;99.90;;;;;;5013924;28;20404;-68
2023/06/11 08:11:14;;;;;;;1999.90;999.90;;;25.50;99.90;;;;;;5013588;28;20183;-67
2023/06/11 08:13:40;;;;;;;1999.90;999.90;;;25.60;99.90;;;;;;5013823;28;20661;-67
2023/06/11 08:16:07;;;;;;;1999.90;999.90;;;25.70;99.90;;;;;;5013549;28;20481;-67
2023/06/11 08:18:33;;;;;;;1999.90;999.90;;;25.80;99.90;;;;;;5013713;28;20788;-67
2023/06/11 08:20:59;;;;;;;1999.90;999.90;;;25.90;99.90;;;;;;5012430;28;20533;-68
2023/06/11 08:23:25;;;;;;;1999.90;999.90;;;26.00;99.90;;;;;;5013652;28;20487;-68
2023/06/11 08:25:50;;;;;;;1999.90;999.90;;;26.00;99.90;;;;;;5013613;28;20173;-68
2023/06/11 08:28:16;;;;;;;1999.90;999.90;;;26.00;99.90;;;;;;5013395;28;20377;-68
2023/06/11 08:30:42;;;;;;;1999.90;999.90;;;26.10;99.90;;;;;;5013427;28;20169;-68
2023/06/11 08:33:08;;;;;;;1999.90;999.90;;;26.20;99.90;;;;;;5013073;28;20581;-68
2023/06/11 08:35:33;;;;;;;1999.90;999.90;;;26.30;99.90;;;;;;5009786;28;20208;-68
2023/06/11 08:37:59;;;;;;;1999.90;999.90;;;26.30;99.90;;;;;;5013178;28;20470;-68
2023/06/11 08:40:25;;;;;;;1999.90;999.90;;;26.30;99.90;;;;;;5013075;28;20574;-68
2023/06/11 08:42:51;;;;;;;1999.90;999.90;;;26.40;99.90;;;;;;5012172;28;20169;-67
2023/06/11 08:45:16;;;;;;;1999.90;999.90;;;26.50;99.90;;;;;;5027994;28;20177;-68
2023/06/11 08:47:49;;;;;;;1999.90;999.90;;;26.50;99.90;;;;;;5012657;28;20255;-68
2023/06/11 08:50:16;;;;;;;1999.90;999.90;;;26.50;99.90;;;;;;5012365;28;20177;-68
2023/06/11 08:52:42;;;;;;;1999.90;999.90;;;26.70;99.90;;;;;;5012680;28;20473;-68
2023/06/11 08:55:09;;;;;;;1999.90;999.90;;;26.60;99.90;;;;;;5012614;28;20404;-68
2023/06/11 08:57:34;;;;;;;1999.90;999.90;;;26.70;99.90;;;;;;5012233;28;20459;-69
2023/06/11 09:00:00;;;;;;;1999.90;999.90;;;26.80;99.90;;;;;;5012511;28;20443;-68
2023/06/11 09:02:25;;;;;;;1999.90;999.90;;;27.00;99.90;;;;;;5011954;28;20173;-69
2023/06/11 09:04:51;;;;;;;1999.90;999.90;;;27.00;99.90;;;;;;5011181;28;20204;-69
2023/06/11 09:07:24;;;;;;;1999.90;999.90;;;27.20;97.30;;;;;;5012331;28;20546;-68
2023/06/11 09:10:10;;;;;;;1999.90;999.90;;;27.10;97.40;;;;;;5012144;28;20177;-69
2023/06/11 09:12:36;;;;;;;1999.90;999.90;;;27.20;97.60;;;;;;5011713;28;20381;-69
2023/06/11 09:15:04;;;;;;;1999.90;999.90;;;27.40;97.70;;;;;;5012319;28;20790;-69
2023/06/11 09:17:34;;;;;;;1999.90;999.90;;;27.40;93.80;;;;;;5012584;28;20423;-69
2023/06/11 09:20:06;;;;;;;1999.90;999.90;;;27.40;93.10;;;;;;5011727;28;20424;-69
2023/06/11 09:22:32;;;;;;;1999.90;999.90;;;27.30;91.50;;;;;;5011462;28;20390;-68
2023/06/11 09:25:02;;;;;;;1999.90;999.90;;;27.40;91.80;;;;;;5012255;28;20412;-69
2023/06/11 09:27:28;;;;;;;1999.90;999.90;;;27.50;93.30;;;;;;5011654;28;20925;-69
2023/06/11 09:29:53;;;;;;;1999.90;999.90;;;27.60;88.50;;;;;;5012190;28;20457;-68
2023/06/11 09:32:19;;;;;;;1999.90;999.90;;;27.70;84.30;;;;;;5011464;28;20639;-68
2023/06/11 09:34:45;;;;;;;1999.90;999.90;;;27.70;84.10;;;;;;5011093;28;20535;-68
2023/06/11 09:37:11;;;;;;;1999.90;999.90;;;27.80;80.60;;;;;;5027031;28;20191;-68
2023/06/11 09:39:41;;;;;;;1999.90;999.90;;;27.70;83.90;;;;;;5014537;28;20406;-68
2023/06/11 09:42:31;;;;;;;1999.90;999.90;;;28.00;79.10;;;;;;5020985;28;20196;-68
2023/06/11 09:44:59;;;;;;;1999.90;999.90;;;27.90;80.40;;;;;;5031308;28;20821;-68
2023/06/11 09:47:27;;;;;;;1999.90;999.90;;;28.20;77.30;;;;;;5031714;28;20944;-69
2023/06/11 09:49:53;;;;;;;1999.90;999.90;;;28.20;70.20;;;;;;5031597;28;20381;-68
2023/06/11 09:52:19;;;;;;;1999.90;999.90;;;28.40;70.00;;;;;;5031341;28;20780;-68
2023/06/11 09:54:48;;;;;;;1999.90;999.90;;;28.40;64.80;;;;;;5031633;28;20402;-68
2023/06/11 09:57:16;;;;;;;1999.90;999.90;;;28.30;67.00;;;;;;5031346;28;20869;-68
2023/06/11 09:59:42;;;;;;;1999.90;999.90;;;28.40;60.90;;;;;;5031606;28;20490;-68
2023/06/11 10:02:08;;;;;;;1999.90;999.90;;;28.50;56.80;;;;;;5031151;28;20890;-67
2023/06/11 10:04:34;;;;;;;1999.90;999.90;;;28.50;59.30;;;;;;5028352;28;20407;-68
2023/06/11 10:07:01;;;;;;;1999.90;999.90;;;28.50;54.80;;;;;;5024425;28;20441;-67
2023/06/11 10:09:29;;;;;;;1999.90;999.90;;;28.50;53.40;;;;;;5026101;28;20266;-67
2023/06/11 10:11:55;;;;;;;1999.90;999.90;;;28.60;53.10;;;;;;5025722;28;20422;-67
2023/06/11 10:14:22;;;;;;;1999.90;999.90;;;28.70;53.90;;;;;;5026227;28;20426;-67
2023/06/11 10:16:51;;;;;;;1999.90;999.90;;;28.90;53.80;;;;;;5026698;28;20240;-68
2023/06/11 10:19:18;;;;;;;1999.90;999.90;;;29.00;52.50;;;;;;5026370;28;20434;-67
2023/06/11 10:21:49;;;;;;;1999.90;999.90;;;29.10;48.00;;;;;;5026998;28;20453;-68
2023/06/11 10:24:24;;;;;;;1999.90;999.90;;;29.20;49.80;;;;;;5027123;28;20450;-68
2023/06/11 10:27:10;;;;;;;1999.90;999.90;;;29.30;50.90;;;;;;5026592;28;21145;-69
2023/06/11 10:29:40;;;;;;;1999.90;999.90;;;29.50;47.90;;;;;;5027789;28;20822;-69
2023/06/11 10:32:20;;;;;;;1999.90;999.90;;;29.60;43.50;;;;;;5026656;28;20418;-69
2023/06/11 10:34:53;;;;;;;1999.90;999.90;;;29.60;41.40;;;;;;5027451;28;21140;-69
2023/06/11 10:37:32;;;;;;;1999.90;999.90;;;29.60;42.80;;;;;;5026902;28;20488;-68
2023/06/11 10:39:58;;;;;;;1999.90;999.90;;;29.70;40.70;;;;;;5026272;28;20418;-68
2023/06/11 10:42:28;;;;;;;1999.90;999.90;;;29.80;37.00;;;;;;5026537;28;20414;-68
2023/06/11 10:44:58;;;;;;;1999.90;999.90;;;29.90;37.10;;;;;;5029047;28;20180;-67
2023/06/11 10:47:24;;;;;;;1999.90;999.90;;;29.90;33.10;;;;;;5031045;28;20439;-68
2023/06/11 10:49:49;;;;;;;1999.90;999.90;;;30.00;35.10;;;;;;5030543;28;20445;-68
2023/06/11 10:52:15;;;;;;;1999.90;999.90;;;30.30;35.80;;;;;;5030385;28;20423;-68
2023/06/11 10:54:43;;;;;;;1999.90;999.90;;;30.30;32.80;;;;;;5030539;28;21007;-68
2023/06/11 10:57:08;;;;;;;1999.90;999.90;;;30.40;29.30;;;;;;5030101;28;20231;-68
2023/06/11 10:59:36;;;;;;;1999.90;999.90;;;30.50;27.80;;;;;;5030632;28;20442;-68
2023/06/11 11:02:01;;;;;;;1999.90;999.90;;;30.70;26.60;;;;;;5030181;28;20767;-68
2023/06/11 11:04:28;;;;;;;1999.90;999.90;;;30.60;22.80;;;;;;5030633;28;20411;-68
2023/06/11 11:07:08;;;;;;;1999.90;999.90;;;30.60;22.80;;;;;;5030759;28;20200;-67
2023/06/11 11:09:34;;;;;;;1999.90;999.90;;;30.60;22.70;;;;;;5030067;28;20429;-68
2023/06/11 11:12:01;;;;;;;1999.90;999.90;;;30.50;23.00;;;;;;5030862;28;20465;-68
2023/06/11 11:14:29;;;;;;;1999.90;999.90;;;30.70;24.40;;;;;;5030452;28;20422;-68
2023/06/11 11:16:55;;;;;;;1999.90;999.90;;;30.70;22.70;;;;;;5029788;28;20473;-68
2023/06/11 11:19:24;;;;;;;1999.90;999.90;;;30.70;23.10;;;;;;5030883;28;20467;-68
2023/06/11 11:21:51;;;;;;;1999.90;999.90;;;30.80;20.00;;;;;;5029793;28;20458;-69
2023/06/11 11:24:17;;;;;;;1999.90;999.90;;;30.80;20.50;;;;;;5029609;28;20438;-69
2023/06/11 11:26:44;;;;;;;1999.90;999.90;;;30.80;19.30;;;;;;5030877;28;20430;-68
2023/06/11 11:29:10;;;;;;;1999.90;999.90;;;30.80;20.00;;;;;;5030362;28;20941;-68
2023/06/11 11:31:37;;;;;;;1999.90;999.90;;;31.10;19.50;;;;;;5029349;28;20414;-68
2023/06/11 11:34:02;;;;;;;1999.90;999.90;;;31.30;19.80;;;;;;5030704;28;20434;-69
2023/06/11 11:36:28;;;;;;;1999.90;999.90;;;31.40;17.70;;;;;;5029955;28;20439;-68
2023/06/11 11:38:54;;;;;;;1999.90;999.90;;;31.40;17.50;;;;;;5029463;28;20181;-68
2023/06/11 11:41:22;;;;;;;1999.90;999.90;;;31.40;17.30;;;;;;5029650;28;20236;-69
2023/06/11 11:43:49;;;;;;;1999.90;999.90;;;31.60;16.20;;;;;;5029960;28;20177;-68
2023/06/11 11:46:19;;;;;;;1999.90;999.90;;;31.50;15.30;;;;;;5029620;28;20423;-68
2023/06/11 11:48:46;;;;;;;1999.90;999.90;;;31.40;15.60;;;;;;5030109;28;20448;-68
2023/06/11 11:51:15;;;;;;;1999.90;999.90;;;31.60;15.70;;;;;;5030120;28;20446;-69
2023/06/11 11:53:41;;;;;;;1999.90;999.90;;;31.70;14.40;;;;;;5029345;28;20497;-68
2023/06/11 11:56:07;;;;;;;1999.90;999.90;;;31.80;14.40;;;;;;5028313;28;20499;-68
2023/06/11 11:58:41;;;;;;;1999.90;999.90;;;32.00;12.90;;;;;;5030325;28;20176;-69